createdAt,value
2017-12-22T00:00:44.406Z,100567.84
2017-12-22T00:03:19.268Z,100567.52
2017-12-22T00:05:54.222Z,100559.55
2017-12-22T00:08:28.683Z,100562.11
2017-12-22T00:11:03.125Z,100562.20
2017-12-22T00:13:37.560Z,100549.63
2017-12-22T00:16:12.053Z,100552.59
2017-12-22T00:18:46.558Z,100567.75
2017-12-22T00:21:20.926Z,100570.41
2017-12-22T00:23:55.421Z,100565.18
2017-12-22T00:26:29.820Z,100564.98
2017-12-22T00:29:04.310Z,100564.77
2017-12-22T00:31:38.741Z,100549.72
2017-12-22T00:34:13.226Z,100530.89
2017-12-22T00:36:47.686Z,100549.30
2017-12-22T00:39:22.226Z,100545.73
2017-12-22T00:41:57.287Z,100562.30
2017-12-22T00:44:31.942Z,100548.80
2017-12-22T00:47:06.398Z,100560.05
2017-12-22T00:49:40.982Z,100551.97
2017-12-22T00:52:15.410Z,100556.69
2017-12-22T00:54:50.502Z,100534.47
2017-12-22T00:57:25.116Z,100556.46
2017-12-22T00:59:59.624Z,100561.69
2017-12-22T01:02:33.994Z,100572.34
2017-12-22T01:05:09.465Z,100572.75
2017-12-22T01:07:43.921Z,100570.38
2017-12-22T01:10:18.290Z,100568.76
2017-12-22T01:12:52.852Z,100574.47
2017-12-22T01:15:32.609Z,100573.77
2017-12-22T01:18:12.650Z,100565.05
2017-12-22T01:20:47.187Z,100572.63
2017-12-22T01:23:21.698Z,100575.80
2017-12-22T01:25:56.142Z,100578.27
2017-12-22T01:28:30.658Z,100580.42
2017-12-22T01:31:05.238Z,100581.75
2017-12-22T01:33:39.792Z,100586.16
2017-12-22T01:36:14.216Z,100581.02
2017-12-22T01:38:49.622Z,100582.67
2017-12-22T01:41:25.074Z,100581.94
2017-12-22T01:43:59.670Z,100581.52
2017-12-22T01:46:34.149Z,100574.67
2017-12-22T01:49:08.726Z,100582.86
2017-12-22T01:51:43.235Z,100582.95
2017-12-22T01:54:17.795Z,100581.83
2017-12-22T01:56:52.238Z,100573.52
2017-12-22T01:59:26.902Z,100574.44
2017-12-22T02:02:01.351Z,100570.62
2017-12-22T02:04:35.962Z,100565.20
2017-12-22T02:07:10.390Z,100568.17
2017-12-22T02:09:45.028Z,100568.36
2017-12-22T02:12:19.456Z,100549.30
2017-12-22T02:14:53.991Z,100551.14
2017-12-22T02:17:28.490Z,100554.22
2017-12-22T02:20:03.521Z,100538.39
2017-12-22T02:22:38.030Z,100566.83
2017-12-22T02:25:12.458Z,100574.92
2017-12-22T02:27:46.986Z,100578.19
2017-12-22T02:30:21.407Z,100577.27
2017-12-22T02:32:55.894Z,100583.61
2017-12-22T02:35:31.303Z,100583.32
2017-12-22T02:38:05.864Z,100571.94
2017-12-22T02:40:40.225Z,100580.52
2017-12-22T02:43:14.810Z,100584.83
2017-12-22T02:45:49.283Z,100573.16
2017-12-22T02:48:23.819Z,100589.14
2017-12-22T02:50:58.198Z,100572.65
2017-12-22T02:53:32.712Z,100568.66
2017-12-22T02:56:07.519Z,100569.47
2017-12-22T02:58:41.898Z,100566.67
2017-12-22T03:01:16.300Z,100565.34
2017-12-22T03:03:50.866Z,100578.34
2017-12-22T03:06:25.234Z,100566.98
2017-12-22T03:08:59.758Z,100558.16
2017-12-22T03:11:34.210Z,100561.02
2017-12-22T03:14:08.698Z,100560.72
2017-12-22T03:16:43.114Z,100550.25
2017-12-22T03:19:17.631Z,100549.83
2017-12-22T03:21:52.036Z,100549.64
2017-12-22T03:24:26.522Z,100549.92
2017-12-22T03:27:00.905Z,100545.81
2017-12-22T03:29:35.413Z,100551.23
2017-12-22T03:32:09.794Z,100544.78
2017-12-22T03:34:44.292Z,100555.02
2017-12-22T03:37:18.778Z,100542.28
2017-12-22T03:39:53.341Z,100543.01
2017-12-22T03:42:27.724Z,100539.30
2017-12-22T03:45:02.254Z,100543.01
2017-12-22T03:47:38.710Z,100545.45
2017-12-22T03:50:13.201Z,100545.25
2017-12-22T03:52:47.717Z,100545.75
2017-12-22T03:55:22.222Z,100547.15
2017-12-22T03:57:56.734Z,100546.00
2017-12-22T04:00:31.202Z,100549.59
2017-12-22T04:03:05.726Z,100553.70
2017-12-22T04:05:40.118Z,100543.25
2017-12-22T04:08:14.478Z,100553.08
2017-12-22T04:10:48.923Z,100545.39
2017-12-22T04:13:23.474Z,100542.80
2017-12-22T04:15:57.927Z,100542.70
2017-12-22T04:18:32.543Z,100543.03
2017-12-22T04:21:06.917Z,100545.64
2017-12-22T04:23:41.917Z,100552.44
2017-12-22T04:26:17.138Z,100536.53
2017-12-22T04:28:51.638Z,100539.30
2017-12-22T04:31:26.082Z,100549.75
2017-12-22T04:34:00.775Z,100555.28
2017-12-22T04:36:35.153Z,100556.41
2017-12-22T04:39:09.585Z,100554.24
2017-12-22T04:41:43.934Z,100556.58
2017-12-22T04:44:18.534Z,100556.50
2017-12-22T04:46:52.934Z,100560.27
2017-12-22T04:49:27.415Z,100557.59
2017-12-22T04:52:01.872Z,100552.16
2017-12-22T04:54:36.246Z,100559.02
2017-12-22T04:57:10.629Z,100549.02
2017-12-22T04:59:45.106Z,100542.95
2017-12-22T05:02:19.582Z,100548.42
2017-12-22T05:04:54.146Z,100553.83
2017-12-22T05:07:28.538Z,100556.48
2017-12-22T05:10:02.915Z,100553.09
2017-12-22T05:12:37.295Z,100556.09
2017-12-22T05:15:11.710Z,100560.69
2017-12-22T05:17:46.163Z,100565.08
2017-12-22T05:20:21.258Z,100554.69
2017-12-22T05:22:55.894Z,100543.34
2017-12-22T05:25:30.374Z,100566.05
2017-12-22T05:28:04.879Z,100561.12
2017-12-22T05:30:39.472Z,100570.25
2017-12-22T05:33:13.972Z,100569.48
2017-12-22T05:35:48.457Z,100565.44
2017-12-22T05:38:22.993Z,100564.92
2017-12-22T05:40:57.437Z,100557.00
2017-12-22T05:43:31.986Z,100560.06
2017-12-22T05:46:06.379Z,100567.23
2017-12-22T05:48:40.938Z,100562.50
2017-12-22T05:51:15.347Z,100553.78
2017-12-22T05:53:49.683Z,100545.54
2017-12-22T05:56:24.166Z,100548.11
2017-12-22T05:58:58.794Z,100550.16
2017-12-22T06:01:33.157Z,100548.94
2017-12-22T06:04:08.145Z,100555.70
2017-12-22T06:06:42.663Z,100552.63
2017-12-22T06:09:17.054Z,100568.28
2017-12-22T06:11:51.457Z,100557.28
2017-12-22T06:14:25.931Z,100565.59
2017-12-22T06:17:00.349Z,100562.75
2017-12-22T06:19:34.885Z,100569.20
2017-12-22T06:22:09.302Z,100571.33
2017-12-22T06:24:43.867Z,100560.64
2017-12-22T06:27:18.227Z,100567.22
2017-12-22T06:29:52.901Z,100564.59
2017-12-22T06:32:27.263Z,100572.95
2017-12-22T06:35:01.646Z,100564.17
2017-12-22T06:37:36.143Z,100570.89
2017-12-22T06:40:10.658Z,100558.16
2017-12-22T06:42:45.150Z,100568.14
2017-12-22T06:45:21.557Z,100564.55
2017-12-22T06:47:56.647Z,100566.78
2017-12-22T06:50:31.094Z,100563.91
2017-12-22T06:53:06.529Z,100566.30
2017-12-22T06:55:41.205Z,100561.37
2017-12-22T06:58:15.808Z,100572.53
2017-12-22T07:00:50.346Z,100576.93
2017-12-22T07:03:24.758Z,100571.69
2017-12-22T07:05:59.120Z,100571.81
2017-12-22T07:08:33.499Z,100588.32
2017-12-22T07:11:07.946Z,100573.03
2017-12-22T07:13:42.599Z,100566.12
2017-12-22T07:16:17.134Z,100564.91
2017-12-22T07:18:52.053Z,100562.37
2017-12-22T07:21:26.422Z,100572.69
2017-12-22T07:24:00.948Z,100569.30
2017-12-22T07:26:35.556Z,100571.89
2017-12-22T07:29:10.156Z,100576.95
2017-12-22T07:31:44.571Z,100579.70
2017-12-22T07:34:19.065Z,100584.94
2017-12-22T07:36:53.433Z,100588.70
2017-12-22T07:39:27.844Z,100593.93
2017-12-22T07:42:02.591Z,100595.55
2017-12-22T07:44:37.128Z,100595.80
2017-12-22T07:47:11.569Z,100594.03
2017-12-22T07:49:46.069Z,100600.07
2017-12-22T07:52:20.545Z,100600.47
2017-12-22T07:54:55.089Z,100593.91
2017-12-22T07:57:29.550Z,100592.98
2017-12-22T08:00:04.002Z,100608.70
2017-12-22T08:02:38.506Z,100608.47
2017-12-22T08:05:12.907Z,100611.06
2017-12-22T08:07:47.955Z,100614.43
2017-12-22T08:10:22.502Z,100616.05
2017-12-22T08:12:56.883Z,100619.52
2017-12-22T08:15:31.330Z,100622.50
2017-12-22T08:18:05.822Z,100629.69
2017-12-22T08:20:40.243Z,100615.15
2017-12-22T08:23:14.818Z,100628.81
2017-12-22T08:25:49.403Z,100622.02
2017-12-22T08:28:24.027Z,100624.27
2017-12-22T08:30:58.390Z,100629.02
2017-12-22T08:33:32.901Z,100619.23
2017-12-22T08:36:07.641Z,100631.70
2017-12-22T08:38:42.125Z,100583.69
2017-12-22T08:41:16.566Z,100625.80
2017-12-22T08:43:51.148Z,100622.20
2017-12-22T08:46:25.550Z,100615.52
2017-12-22T08:49:00.067Z,100624.44
2017-12-22T08:51:35.735Z,100628.28
2017-12-22T08:54:10.222Z,100625.97
2017-12-22T08:56:44.614Z,100623.37
2017-12-22T08:59:19.131Z,100625.33
2017-12-22T09:01:53.553Z,100620.08
2017-12-22T09:04:27.782Z,100626.53
2017-12-22T09:07:03.034Z,100625.80
2017-12-22T09:09:37.529Z,100622.52
2017-12-22T09:12:11.924Z,100606.75
2017-12-22T09:14:46.350Z,100628.72
2017-12-22T09:17:20.796Z,100626.80
2017-12-22T09:19:55.322Z,100623.34
2017-12-22T09:22:29.731Z,100616.45
2017-12-22T09:25:03.990Z,100618.12
2017-12-22T09:27:38.711Z,100619.73
2017-12-22T09:30:13.747Z,100614.32
2017-12-22T09:32:48.462Z,100620.56
2017-12-22T09:35:22.932Z,100626.48
2017-12-22T09:37:57.336Z,100625.84
2017-12-22T09:40:31.759Z,100609.66
2017-12-22T09:43:06.463Z,100610.95
2017-12-22T09:45:40.894Z,100614.76
2017-12-22T09:48:15.606Z,100596.48
2017-12-22T09:50:50.174Z,100597.47
2017-12-22T09:53:24.733Z,100599.41
2017-12-22T09:55:59.144Z,100586.27
2017-12-22T09:58:33.731Z,100603.39
2017-12-22T10:01:08.353Z,100592.36
2017-12-22T10:03:42.908Z,100593.22
2017-12-22T10:06:17.396Z,100595.43
2017-12-22T10:08:51.791Z,100595.53
2017-12-22T10:11:26.295Z,100589.25
2017-12-22T10:14:00.779Z,100571.13
2017-12-22T10:16:35.214Z,100590.05
2017-12-22T10:19:09.790Z,100588.16
2017-12-22T10:21:44.211Z,100577.66
2017-12-22T10:24:18.569Z,100577.00
2017-12-22T10:26:52.710Z,100571.25
2017-12-22T10:29:27.121Z,100565.66
2017-12-22T10:32:01.515Z,100561.27
2017-12-22T10:34:36.042Z,100540.86
2017-12-22T10:37:10.614Z,100549.34
2017-12-22T10:39:45.157Z,100551.17
2017-12-22T10:42:20.351Z,100548.47
2017-12-22T10:44:54.784Z,100540.38
2017-12-22T10:47:29.210Z,100536.99
2017-12-22T10:50:04.300Z,100544.09
2017-12-22T10:52:38.809Z,100535.70
2017-12-22T10:55:13.254Z,100525.00
2017-12-22T10:57:47.704Z,100521.84
2017-12-22T11:00:21.545Z,100532.60
2017-12-22T11:02:55.934Z,100511.62
2017-12-22T11:05:30.399Z,100515.97
2017-12-22T11:08:05.334Z,100510.94
2017-12-22T11:10:39.914Z,100500.16
2017-12-22T11:13:14.322Z,100502.58
2017-12-22T11:15:48.715Z,100496.16
2017-12-22T11:18:23.186Z,100500.23
2017-12-22T11:20:57.549Z,100490.03
2017-12-22T11:23:32.881Z,100486.69
2017-12-22T11:26:07.354Z,100478.19
2017-12-22T11:28:41.855Z,100484.55
2017-12-22T11:31:17.250Z,100479.09
2017-12-22T11:33:51.806Z,100479.16
2017-12-22T11:36:26.245Z,100482.92
2017-12-22T11:39:00.814Z,100473.62
2017-12-22T11:41:35.309Z,100474.02
2017-12-22T11:44:09.998Z,100468.44
2017-12-22T11:46:44.588Z,100476.22
2017-12-22T11:49:19.122Z,100468.33
2017-12-22T11:51:53.718Z,100467.37
2017-12-22T11:54:28.339Z,100469.01
2017-12-22T11:57:02.777Z,100481.73
2017-12-22T11:59:37.241Z,100468.24
2017-12-22T12:02:11.608Z,100477.23
2017-12-22T12:04:46.178Z,100467.98
2017-12-22T12:07:20.979Z,100475.44
2017-12-22T12:09:55.431Z,100470.62
2017-12-22T12:12:30.023Z,100467.31
2017-12-22T12:15:14.106Z,100472.56
2017-12-22T12:17:48.678Z,100457.37
2017-12-22T12:20:23.380Z,100459.41
2017-12-22T12:22:59.259Z,100449.30
2017-12-22T12:25:34.467Z,100458.99
2017-12-22T12:28:08.967Z,100450.86
2017-12-22T12:30:44.134Z,100447.25
2017-12-22T12:33:18.571Z,100440.61
2017-12-22T12:35:53.902Z,100416.52
2017-12-22T12:38:28.302Z,100430.66
2017-12-22T12:41:02.802Z,100441.02
2017-12-22T12:43:37.958Z,100433.03
2017-12-22T12:46:12.494Z,100418.37
2017-12-22T12:48:47.020Z,100423.83
2017-12-22T12:51:22.362Z,100406.53
2017-12-22T12:53:56.875Z,100413.64
2017-12-22T12:56:31.352Z,100407.61
2017-12-22T12:59:05.783Z,100410.04
2017-12-22T13:01:40.223Z,100402.06
2017-12-22T13:04:15.593Z,100401.38
2017-12-22T13:06:50.108Z,100406.90
2017-12-22T13:09:25.290Z,100378.16
2017-12-22T13:11:59.559Z,100394.58
2017-12-22T13:14:33.899Z,100393.88
2017-12-22T13:17:08.803Z,100387.13
2017-12-22T13:19:43.217Z,100400.05
2017-12-22T13:22:17.604Z,100406.22
2017-12-22T13:24:51.966Z,100401.88
2017-12-22T13:27:26.390Z,100404.12
2017-12-22T13:30:00.899Z,100388.98
2017-12-22T13:32:35.288Z,100379.19
2017-12-22T13:35:11.150Z,100373.26
2017-12-22T13:37:45.416Z,100369.45
2017-12-22T13:40:19.908Z,100360.45
2017-12-22T13:42:54.333Z,100383.77
2017-12-22T13:45:28.786Z,100379.45
2017-12-22T13:48:03.254Z,100380.34
2017-12-22T13:50:37.733Z,100380.02
2017-12-22T13:53:12.109Z,100395.72
2017-12-22T13:55:46.986Z,100389.03
2017-12-22T13:58:21.484Z,100400.55
2017-12-22T14:00:57.096Z,100389.30
2017-12-22T14:03:31.754Z,100402.13
2017-12-22T14:06:06.138Z,100406.04
2017-12-22T14:08:41.435Z,100410.72
2017-12-22T14:11:16.043Z,100395.60
2017-12-22T14:13:50.553Z,100404.23
2017-12-22T14:16:24.926Z,100400.33
2017-12-22T14:18:59.352Z,100405.78
2017-12-22T14:21:33.846Z,100401.89
2017-12-22T14:24:08.339Z,100404.50
2017-12-22T14:26:42.826Z,100400.22
2017-12-22T14:29:17.329Z,100405.67
2017-12-22T14:31:51.777Z,100399.50
2017-12-22T14:34:26.370Z,100407.78
2017-12-22T14:37:00.855Z,100406.13
2017-12-22T14:39:35.423Z,100407.69
2017-12-22T14:42:09.832Z,100412.67
2017-12-22T14:44:44.346Z,100409.48
2017-12-22T14:47:18.738Z,100411.11
2017-12-22T14:49:53.327Z,100417.92
2017-12-22T14:52:27.708Z,100427.03
2017-12-22T14:55:02.218Z,100419.61
2017-12-22T14:57:38.308Z,100428.77
2017-12-22T15:00:12.707Z,100429.73
2017-12-22T15:02:47.215Z,100435.63
2017-12-22T15:05:21.616Z,100442.22
2017-12-22T15:07:55.965Z,100443.41
2017-12-22T15:10:30.440Z,100444.69
2017-12-22T15:13:04.884Z,100443.76
2017-12-22T15:15:39.406Z,100433.08
2017-12-22T15:18:13.834Z,100446.43
2017-12-22T15:20:48.210Z,100452.97
2017-12-22T15:23:22.711Z,100451.70
2017-12-22T15:25:59.482Z,100446.17
2017-12-22T15:28:34.084Z,100442.89
2017-12-22T15:31:08.434Z,100440.33
2017-12-22T15:33:43.491Z,100443.04
2017-12-22T15:36:18.140Z,100446.58
2017-12-22T15:38:52.542Z,100345.65
2017-12-22T15:41:27.462Z,100444.70
2017-12-22T15:44:02.882Z,100446.97
2017-12-22T15:46:38.103Z,100436.31
2017-12-22T15:49:13.441Z,100443.51
2017-12-22T15:51:47.798Z,100442.34
2017-12-22T15:54:22.299Z,100430.49
2017-12-22T15:56:56.771Z,100431.56
2017-12-22T15:59:31.217Z,100424.88
2017-12-22T16:02:05.629Z,100424.41
2017-12-22T16:04:40.185Z,100421.25
2017-12-22T16:07:14.582Z,100412.36
2017-12-22T16:09:49.032Z,100426.05
2017-12-22T16:12:24.310Z,100427.02
2017-12-22T16:14:59.236Z,100417.98
2017-12-22T16:17:33.863Z,100429.67
2017-12-22T16:20:09.595Z,100432.38
2017-12-22T16:22:44.174Z,100427.27
2017-12-22T16:25:18.657Z,100429.33
2017-12-22T16:27:53.584Z,100420.98
2017-12-22T16:30:27.974Z,100390.69
2017-12-22T16:33:03.403Z,100437.15
2017-12-22T16:35:38.422Z,100442.08
2017-12-22T16:38:12.954Z,100446.16
2017-12-22T16:40:47.414Z,100444.31
2017-12-22T16:43:23.510Z,100441.85
2017-12-22T16:46:01.130Z,100446.96
2017-12-22T16:48:35.542Z,100442.91
2017-12-22T16:51:09.998Z,100450.17
2017-12-22T16:53:45.210Z,100456.30
2017-12-22T16:56:19.773Z,100438.45
2017-12-22T16:58:55.130Z,100434.27
2017-12-22T17:01:30.746Z,100446.80
2017-12-22T17:04:05.147Z,100444.23
2017-12-22T17:06:39.794Z,100454.73
2017-12-22T17:09:14.210Z,100451.98
2017-12-22T17:11:48.769Z,100454.86
2017-12-22T17:14:23.207Z,100454.15
2017-12-22T17:16:57.668Z,100458.98
2017-12-22T17:19:32.109Z,100464.91
2017-12-22T17:22:06.530Z,100463.20
2017-12-22T17:24:41.011Z,100469.62
2017-12-22T17:27:15.803Z,100476.63
2017-12-22T17:29:50.380Z,100467.92
2017-12-22T17:32:24.837Z,100472.38
2017-12-22T17:34:59.207Z,100471.28
2017-12-22T17:37:33.594Z,100468.95
2017-12-22T17:40:08.546Z,100467.85
2017-12-22T17:42:43.037Z,100470.73
2017-12-22T17:45:18.223Z,100469.80
2017-12-22T17:47:52.755Z,100480.29
2017-12-22T17:50:27.866Z,100473.16
2017-12-22T17:53:02.383Z,100470.11
2017-12-22T17:55:37.626Z,100478.30
2017-12-22T17:58:12.234Z,100460.15
2017-12-22T18:00:46.631Z,100469.66
2017-12-22T18:03:21.761Z,100482.03
2017-12-22T18:05:56.033Z,100465.70
2017-12-22T18:08:30.189Z,100468.95
2017-12-22T18:11:04.611Z,100467.81
2017-12-22T18:13:39.044Z,100459.39
2017-12-22T18:16:13.489Z,100457.84
2017-12-22T18:18:48.059Z,100457.41
2017-12-22T18:21:22.648Z,100446.50
2017-12-22T18:23:57.446Z,100453.80
2017-12-22T18:26:34.378Z,100460.08
2017-12-22T18:29:08.795Z,100437.66
2017-12-22T18:31:43.154Z,100445.66
2017-12-22T18:34:17.572Z,100446.84
2017-12-22T18:36:52.102Z,100462.39
2017-12-22T18:39:26.646Z,100439.37
2017-12-22T18:42:01.137Z,100445.64
2017-12-22T18:44:36.485Z,100446.50
2017-12-22T18:47:11.435Z,100455.86
2017-12-22T18:49:46.646Z,100423.08
2017-12-22T18:52:21.257Z,100443.69
2017-12-22T18:54:55.830Z,100440.30
2017-12-22T18:57:30.225Z,100409.88
2017-12-22T19:00:13.548Z,100429.19
2017-12-22T19:02:47.915Z,100431.56
2017-12-22T19:05:23.958Z,100429.77
2017-12-22T19:07:58.553Z,100428.81
2017-12-22T19:10:33.019Z,100419.00
2017-12-22T19:13:07.482Z,100421.02
2017-12-22T19:15:42.190Z,100428.66
2017-12-22T19:18:16.589Z,100426.50
2017-12-22T19:20:51.834Z,100410.48
2017-12-22T19:23:26.252Z,100428.31
2017-12-22T19:26:01.342Z,100434.34
2017-12-22T19:28:35.936Z,100438.76
2017-12-22T19:31:10.595Z,100438.82
2017-12-22T19:33:45.245Z,100442.27
2017-12-22T19:36:20.140Z,100436.21
2017-12-22T19:38:54.797Z,100447.69
2017-12-22T19:41:29.211Z,100461.63
2017-12-22T19:44:03.751Z,100466.16
2017-12-22T19:46:38.163Z,100459.61
2017-12-22T19:49:12.666Z,100453.51
2017-12-22T19:51:48.094Z,100454.02
2017-12-22T19:54:23.186Z,100452.54
2017-12-22T19:56:57.739Z,100434.19
2017-12-22T19:59:32.242Z,100442.62
2017-12-22T20:02:06.886Z,100440.94
2017-12-22T20:04:41.438Z,100427.63
2017-12-22T20:07:15.886Z,100432.21
2017-12-22T20:09:50.498Z,100431.18
2017-12-22T20:12:24.968Z,100433.64
2017-12-22T20:14:59.541Z,100450.80
2017-12-22T20:17:33.922Z,100441.89
2017-12-22T20:20:14.707Z,100446.83
2017-12-22T20:22:50.147Z,100446.66
2017-12-22T20:25:24.699Z,100431.02
2017-12-22T20:28:00.109Z,100435.54
2017-12-22T20:30:34.642Z,100434.59
2017-12-22T20:33:09.171Z,100458.09
2017-12-22T20:35:43.627Z,100433.41
2017-12-22T20:38:18.160Z,100444.23
2017-12-22T20:40:52.662Z,100450.98
2017-12-22T20:43:27.186Z,100454.88
2017-12-22T20:46:01.731Z,100449.52
2017-12-22T20:48:36.245Z,100412.48
2017-12-22T20:51:10.657Z,100434.89
2017-12-22T20:53:45.193Z,100442.09
2017-12-22T20:56:19.664Z,100445.66
2017-12-22T20:58:54.200Z,100449.34
2017-12-22T21:01:28.687Z,100459.73
2017-12-22T21:04:03.212Z,100437.09
2017-12-22T21:06:37.624Z,100440.37
2017-12-22T21:09:12.901Z,100451.08
2017-12-22T21:11:48.130Z,100451.84
2017-12-22T21:14:22.783Z,100449.06
2017-12-22T21:16:57.178Z,100449.60
2017-12-22T21:19:31.634Z,100454.56
2017-12-22T21:22:06.007Z,100454.70
2017-12-22T21:24:40.649Z,100468.02
2017-12-22T21:27:15.103Z,100477.38
2017-12-22T21:29:50.513Z,100471.90
2017-12-22T21:32:25.058Z,100477.45
2017-12-22T21:35:02.331Z,100486.98
2017-12-22T21:37:42.255Z,100481.28
2017-12-22T21:40:16.824Z,100472.22
2017-12-22T21:42:51.411Z,100498.86
2017-12-22T21:45:25.775Z,100497.28
2017-12-22T21:48:01.112Z,100505.03
2017-12-22T21:50:35.513Z,100478.13
2017-12-22T21:53:10.162Z,100518.04
2017-12-22T21:55:44.561Z,100510.29
2017-12-22T21:58:19.105Z,100519.55
2017-12-22T22:00:53.426Z,100516.29
2017-12-22T22:03:27.850Z,100515.53
2017-12-22T22:06:02.366Z,100523.59
2017-12-22T22:08:36.834Z,100513.66
2017-12-22T22:11:11.199Z,100508.30
2017-12-22T22:13:45.714Z,100520.73
2017-12-22T22:16:20.116Z,100522.75
2017-12-22T22:18:54.486Z,100524.39
2017-12-22T22:21:28.983Z,100526.11
2017-12-22T22:24:03.577Z,100520.80
2017-12-22T22:26:38.011Z,100523.92
2017-12-22T22:29:12.538Z,100515.02
2017-12-22T22:31:47.026Z,100514.13
2017-12-22T22:34:21.676Z,100511.29
2017-12-22T22:36:56.299Z,100510.12
2017-12-22T22:39:30.784Z,100520.34
2017-12-22T22:42:05.244Z,100521.13
2017-12-22T22:44:39.842Z,100510.81
2017-12-22T22:47:14.433Z,100516.41
2017-12-22T22:49:49.044Z,100529.21
2017-12-22T22:52:23.419Z,100520.03
2017-12-22T22:54:58.074Z,100516.88
2017-12-22T22:57:32.460Z,100524.17
2017-12-22T23:00:14.888Z,100523.33
2017-12-22T23:02:49.485Z,100526.85
2017-12-22T23:05:24.628Z,100528.25
2017-12-22T23:07:59.187Z,100530.00
2017-12-22T23:10:33.561Z,100541.61
2017-12-22T23:13:08.038Z,100531.70
2017-12-22T23:15:42.995Z,100539.38
2017-12-22T23:18:17.515Z,100538.89
2017-12-22T23:20:52.112Z,100536.42
2017-12-22T23:23:26.491Z,100544.12
2017-12-22T23:26:00.908Z,100531.75
2017-12-22T23:28:35.429Z,100542.41
2017-12-22T23:31:10.269Z,100537.95
2017-12-22T23:33:44.755Z,100551.06
2017-12-22T23:36:19.238Z,100550.38
2017-12-22T23:38:53.789Z,100549.73
2017-12-22T23:41:28.241Z,100552.64
2017-12-22T23:44:02.808Z,100546.94
2017-12-22T23:46:37.162Z,100538.80
2017-12-22T23:49:11.845Z,100528.61
2017-12-22T23:51:46.417Z,100545.58
2017-12-22T23:54:20.922Z,100541.03
2017-12-22T23:56:55.425Z,100539.05
2017-12-22T23:59:30.009Z,100551.06
